Time;durP1;ratioP1;P1;durP2;ratioP2;P2;SDS_P1;SDS_P2;PMS_P1;PMS_P2;Temp;Humidity;BMP_temperature;BMP_pressure;BME280_temperature;BME280_humidity;BME280_pressure;Samples;Min_cycle;Max_cycle;Signal;HPM_P1;HPM_P2
2022/06/23 00:01:04;;;;;;;8.23;3.83;;;17.10;99.90;;;;;;4992059;28;20220;-71
2022/06/23 00:03:34;;;;;;;7.63;4.13;;;17.00;99.90;;;;;;4976247;28;20215;-71
2022/06/23 00:06:05;;;;;;;7.57;3.83;;;16.90;99.90;;;;;;4991488;28;20549;-71
2022/06/23 00:08:43;;;;;;;6.40;3.67;;;16.90;99.90;;;;;;4992132;28;20259;-70
2022/06/23 00:11:23;;;;;;;8.27;4.00;;;16.90;99.90;;;;;;4992967;28;20232;-71
2022/06/23 00:13:54;;;;;;;6.87;4.30;;;16.80;99.90;;;;;;4975368;28;20236;-71
2022/06/23 00:16:27;;;;;;;8.07;4.10;;;16.70;99.90;;;;;;4991779;28;20283;-71
2022/06/23 00:18:54;;;;;;;7.00;3.83;;;16.70;99.90;;;;;;4976044;28;20561;-70
2022/06/23 00:21:32;;;;;;;8.97;4.40;;;16.60;99.90;;;;;;4975891;28;20296;-70
2022/06/23 00:24:02;;;;;;;7.67;4.20;;;16.60;99.90;;;;;;4975258;28;20304;-70
2022/06/23 00:26:32;;;;;;;11.73;4.50;;;16.60;99.90;;;;;;4975401;28;20225;-70
2022/06/23 00:29:06;;;;;;;10.20;3.90;;;16.50;99.90;;;;;;4975704;28;20201;-70
2022/06/23 00:31:36;;;;;;;8.27;4.40;;;16.50;99.90;;;;;;4975733;28;20385;-70
2022/06/23 00:34:14;;;;;;;8.10;4.30;;;16.50;99.90;;;;;;4975508;28;20205;-70
2022/06/23 00:37:04;;;;;;;6.83;3.87;;;16.40;99.90;;;;;;4975674;28;20193;-71
2022/06/23 00:39:37;;;;;;;7.27;4.03;;;16.40;99.90;;;;;;4975529;28;20762;-71
2022/06/23 00:42:27;;;;;;;8.33;4.70;;;16.40;99.90;;;;;;4975510;28;20237;-71
2022/06/23 00:45:07;;;;;;;8.63;4.87;;;16.40;99.90;;;;;;4975144;28;20197;-70
2022/06/23 00:47:49;;;;;;;9.13;4.20;;;16.40;99.90;;;;;;4975698;28;20220;-71
2022/06/23 00:50:25;;;;;;;7.17;4.17;;;16.30;99.90;;;;;;4975710;28;20634;-70
2022/06/23 00:53:12;;;;;;;8.60;4.30;;;16.30;99.90;;;;;;4992732;28;20676;-70
2022/06/23 00:56:06;;;;;;;8.77;4.17;;;16.30;99.90;;;;;;4992502;28;20299;-70
2022/06/23 00:58:51;;;;;;;9.83;4.53;;;16.30;99.90;;;;;;4975467;28;20220;-70
2022/06/23 01:01:24;;;;;;;6.50;4.40;;;16.30;99.90;;;;;;4975476;28;20238;-70
2022/06/23 01:04:09;;;;;;;8.23;4.53;;;16.20;99.90;;;;;;4975130;28;20189;-70
2022/06/23 01:06:41;;;;;;;7.00;4.60;;;16.20;99.90;;;;;;4975257;28;20219;-71
2022/06/23 01:09:27;;;;;;;10.93;4.37;;;16.20;99.90;;;;;;4975699;28;20288;-70
2022/06/23 01:12:04;;;;;;;7.83;4.83;;;16.20;99.90;;;;;;4991452;28;20328;-70
2022/06/23 01:14:49;;;;;;;7.07;4.27;;;16.10;99.90;;;;;;4974872;28;20216;-70
2022/06/23 01:17:26;;;;;;;7.50;4.23;;;16.10;99.90;;;;;;4977944;28;20724;-70
2022/06/23 01:20:20;;;;;;;8.10;4.70;;;16.10;99.90;;;;;;4996175;28;20188;-71
2022/06/23 01:22:50;;;;;;;8.53;4.50;;;16.10;99.90;;;;;;4996228;28;20193;-71
2022/06/23 01:25:26;;;;;;;7.13;4.37;;;16.10;99.90;;;;;;4994482;28;20204;-70
2022/06/23 01:28:00;;;;;;;8.07;4.57;;;16.00;99.90;;;;;;4996359;28;20331;-71
2022/06/23 01:30:32;;;;;;;9.53;4.50;;;16.00;99.90;;;;;;4996138;28;20195;-71
2022/06/23 01:33:17;;;;;;;8.67;4.33;;;16.00;99.90;;;;;;4996074;28;20284;-70
2022/06/23 01:35:55;;;;;;;8.17;4.77;;;16.00;99.90;;;;;;4978275;28;20201;-71
2022/06/23 01:38:38;;;;;;;8.73;4.80;;;16.00;99.90;;;;;;4978441;28;20208;-71
2022/06/23 01:41:12;;;;;;;5.83;4.10;;;15.90;99.90;;;;;;4978498;28;20718;-70
2022/06/23 01:43:59;;;;;;;7.83;4.50;;;15.90;99.90;;;;;;4978367;28;20229;-71
2022/06/23 01:46:34;;;;;;;7.87;4.60;;;15.90;99.90;;;;;;4978293;28;20271;-70
2022/06/23 01:49:15;;;;;;;8.33;4.73;;;15.90;99.90;;;;;;4978380;28;20204;-70
2022/06/23 01:51:49;;;;;;;8.77;4.60;;;15.90;99.90;;;;;;4994324;28;20202;-70
2022/06/23 01:54:22;;;;;;;8.10;4.90;;;15.90;99.90;;;;;;4977942;28;20215;-70
2022/06/23 01:57:22;;;;;;;8.87;4.77;;;15.80;99.90;;;;;;4978179;28;20232;-70
2022/06/23 02:00:12;;;;;;;7.87;4.53;;;15.80;99.90;;;;;;4978025;28;20196;-70
2022/06/23 02:03:17;;;;;;;10.83;4.60;;;15.80;99.90;;;;;;4977907;28;20255;-70
2022/06/23 02:05:50;;;;;;;6.43;4.47;;;15.80;99.90;;;;;;4916189;29;20753;-71
2022/06/23 02:08:35;;;;;;;8.10;4.90;;;15.80;99.90;;;;;;4900722;29;20716;-71
2022/06/23 02:11:20;;;;;;;6.47;4.93;;;15.80;99.90;;;;;;4916142;29;20294;-71
2022/06/23 02:14:13;;;;;;;10.60;5.17;;;15.80;99.90;;;;;;4900302;29;20469;-70
2022/06/23 02:17:02;;;;;;;7.43;4.50;;;15.80;99.90;;;;;;4916043;29;20326;-71
2022/06/23 02:19:46;;;;;;;8.80;4.67;;;15.80;99.90;;;;;;4900324;29;20215;-71
2022/06/23 02:22:27;;;;;;;8.77;4.67;;;15.80;99.90;;;;;;4916032;29;20196;-71
2022/06/23 02:24:57;;;;;;;6.83;4.43;;;15.70;99.90;;;;;;4900275;29;20298;-70
2022/06/23 02:27:31;;;;;;;7.83;4.40;;;15.80;99.90;;;;;;4915515;29;20234;-71
2022/06/23 02:30:03;;;;;;;10.40;4.93;;;15.70;99.90;;;;;;4900164;29;20213;-71
2022/06/23 02:33:04;;;;;;;6.67;4.30;;;15.70;99.90;;;;;;4916201;29;20673;-71
2022/06/23 02:35:41;;;;;;;8.07;5.03;;;15.70;99.90;;;;;;4899924;29;20677;-71
2022/06/23 02:38:10;;;;;;;9.73;5.30;;;15.70;99.90;;;;;;4915740;29;20226;-71
2022/06/23 02:40:45;;;;;;;8.43;4.57;;;15.70;99.90;;;;;;4915513;29;20200;-71
2022/06/23 02:43:16;;;;;;;9.70;5.30;;;15.60;99.90;;;;;;4982011;28;20204;-71
2022/06/23 02:45:49;;;;;;;7.27;4.67;;;15.60;99.90;;;;;;4993852;28;20600;-70
2022/06/23 02:48:44;;;;;;;9.27;4.60;;;15.60;99.90;;;;;;4977164;28;20224;-71
2022/06/23 02:51:11;;;;;;;9.47;4.83;;;15.60;99.90;;;;;;4977178;28;20642;-71
2022/06/23 02:53:55;;;;;;;10.50;5.23;;;15.70;99.90;;;;;;4977021;28;20196;-68
2022/06/23 02:56:35;;;;;;;9.00;5.20;;;15.70;99.90;;;;;;4994447;28;20199;-69
2022/06/23 02:59:08;;;;;;;6.90;4.80;;;15.60;99.90;;;;;;4994603;28;20231;-71
2022/06/23 03:01:50;;;;;;;8.83;4.83;;;15.60;99.90;;;;;;4994502;28;20267;-71
2022/06/23 03:04:35;;;;;;;9.80;5.10;;;15.60;99.90;;;;;;4976855;28;20271;-71
2022/06/23 03:07:11;;;;;;;10.67;5.07;;;15.60;99.90;;;;;;4945218;28;20217;-70
2022/06/23 03:09:43;;;;;;;7.30;5.03;;;15.60;99.90;;;;;;4976790;28;20232;-71
2022/06/23 03:12:33;;;;;;;7.43;4.50;;;15.60;99.90;;;;;;4976698;28;20227;-70
2022/06/23 03:15:16;;;;;;;8.53;4.77;;;15.60;99.90;;;;;;4976775;28;20221;-69
2022/06/23 03:17:52;;;;;;;9.27;4.87;;;15.60;99.90;;;;;;4976942;28;20299;-71
2022/06/23 03:20:25;;;;;;;8.93;5.10;;;15.70;99.90;;;;;;4994371;28;20258;-71
2022/06/23 03:23:04;;;;;;;8.97;4.93;;;15.80;99.90;;;;;;4976393;28;20201;-73
2022/06/23 03:25:42;;;;;;;13.57;5.70;;;15.80;99.90;;;;;;4959597;28;20300;-71
2022/06/23 03:29:00;;;;;;;8.57;5.23;;;15.90;99.90;;;;;;4959940;28;20243;-71
2022/06/23 03:31:31;;;;;;;8.10;4.93;;;16.00;99.90;;;;;;4899200;29;20203;-73
2022/06/23 03:34:24;;;;;;;10.40;4.90;;;16.10;99.90;;;;;;4899110;29;20250;-70
2022/06/23 03:37:04;;;;;;;7.40;5.30;;;16.10;99.90;;;;;;4899229;29;20203;-70
2022/06/23 03:42:40;;;;;;;7.37;4.80;;;16.20;99.90;;;;;;4914753;29;20203;-71
2022/06/23 03:45:16;;;;;;;9.73;4.80;;;16.40;99.90;;;;;;4914678;29;20202;-71
2022/06/23 03:48:17;;;;;;;7.90;4.97;;;16.40;99.90;;;;;;4914597;29;20326;-72
2022/06/23 03:50:50;;;;;;;6.77;4.97;;;16.50;99.90;;;;;;4899090;29;20247;-71
2022/06/23 03:53:50;;;;;;;9.40;4.80;;;16.50;99.90;;;;;;4914447;29;20204;-71
2022/06/23 03:56:23;;;;;;;7.43;4.77;;;16.60;99.90;;;;;;4886675;29;20259;-71
2022/06/23 03:59:13;;;;;;;6.93;4.43;;;16.60;99.90;;;;;;4914543;29;20203;-70
2022/06/23 04:01:55;;;;;;;6.03;4.37;;;16.70;99.90;;;;;;4898674;29;20203;-69
2022/06/23 04:04:44;;;;;;;7.87;4.53;;;16.80;99.90;;;;;;4909299;28;20274;-71
2022/06/23 04:07:32;;;;;;;8.33;4.50;;;16.80;99.90;;;;;;4979639;28;20271;-71
2022/06/23 04:10:09;;;;;;;7.53;4.63;;;16.90;99.90;;;;;;4976026;28;20677;-71
2022/06/23 04:13:05;;;;;;;9.43;4.77;;;17.00;99.90;;;;;;4992834;28;20251;-71
2022/06/23 04:15:39;;;;;;;8.27;4.40;;;17.10;99.90;;;;;;4993156;28;20271;-71
2022/06/23 04:18:15;;;;;;;9.03;4.90;;;17.10;99.90;;;;;;4976465;28;20211;-71
2022/06/23 04:20:49;;;;;;;7.53;5.03;;;17.20;99.90;;;;;;4993327;28;20227;-71
2022/06/23 04:23:23;;;;;;;10.93;4.43;;;17.40;99.90;;;;;;4993025;28;20247;-70
2022/06/23 04:25:56;;;;;;;6.97;4.37;;;17.50;99.90;;;;;;4992909;28;20291;-71
2022/06/23 04:28:33;;;;;;;8.83;4.43;;;17.60;99.90;;;;;;4975618;28;20233;-71
2022/06/23 04:31:04;;;;;;;8.00;4.20;;;17.80;99.90;;;;;;4975775;28;20193;-71
2022/06/23 04:33:38;;;;;;;6.60;3.90;;;17.80;99.90;;;;;;4975549;28;20200;-70
2022/06/23 04:36:05;;;;;;;5.97;4.00;;;17.90;99.90;;;;;;4975813;28;20219;-71
2022/06/23 04:38:45;;;;;;;5.93;3.77;;;18.10;99.90;;;;;;4975503;28;20228;-71
2022/06/23 04:41:28;;;;;;;7.77;3.80;;;18.20;99.90;;;;;;4975813;28;20215;-71
2022/06/23 04:44:26;;;;;;;6.63;3.83;;;18.30;99.90;;;;;;4975743;28;20205;-69
2022/06/23 04:46:58;;;;;;;6.80;3.50;;;18.40;99.90;;;;;;4967401;28;20307;-70
2022/06/23 04:49:39;;;;;;;5.97;3.57;;;18.40;99.90;;;;;;4975593;28;20300;-72
2022/06/23 04:52:22;;;;;;;8.50;3.60;;;18.50;99.90;;;;;;4995651;28;20271;-70
2022/06/23 04:55:12;;;;;;;7.70;3.70;;;18.60;99.90;;;;;;4979436;28;20642;-72
2022/06/23 04:58:00;;;;;;;6.87;3.40;;;18.60;99.90;;;;;;4979338;28;20196;-71
2022/06/23 05:00:41;;;;;;;6.70;3.50;;;18.70;99.90;;;;;;4963583;28;20295;-70
2022/06/23 05:03:35;;;;;;;6.93;3.33;;;18.70;99.90;;;;;;4996470;28;20196;-72
2022/06/23 05:06:42;;;;;;;8.70;3.63;;;18.80;99.90;;;;;;4976641;28;20614;-71
2022/06/23 05:09:21;;;;;;;6.33;3.67;;;18.90;99.90;;;;;;4978861;28;20224;-69
2022/06/23 05:11:52;;;;;;;7.23;3.93;;;19.00;99.90;;;;;;4996511;28;20296;-70
2022/06/23 05:14:29;;;;;;;7.17;3.50;;;19.10;99.90;;;;;;4995205;28;20263;-70
2022/06/23 05:17:13;;;;;;;7.47;3.83;;;19.10;99.90;;;;;;4996550;28;20217;-72
2022/06/23 05:19:41;;;;;;;10.57;3.53;;;19.10;99.90;;;;;;4979249;28;20233;-72
2022/06/23 05:22:20;;;;;;;8.97;3.70;;;19.20;99.90;;;;;;4978856;28;20231;-71
2022/06/23 05:24:48;;;;;;;10.17;3.77;;;19.30;99.90;;;;;;4996310;28;20193;-70
2022/06/23 05:27:29;;;;;;;8.13;3.63;;;19.40;99.90;;;;;;4978960;28;20730;-71
2022/06/23 05:30:24;;;;;;;9.20;3.30;;;19.40;99.90;;;;;;4995087;28;20235;-70
2022/06/23 05:33:01;;;;;;;10.23;4.03;;;19.40;99.90;;;;;;4916991;29;20578;-70
2022/06/23 05:35:39;;;;;;;9.43;3.50;;;19.50;99.90;;;;;;4916940;29;20242;-71
2022/06/23 05:38:12;;;;;;;4.97;3.17;;;19.50;99.90;;;;;;4901340;29;20335;-70
2022/06/23 05:40:51;;;;;;;8.43;3.50;;;19.60;99.90;;;;;;4916924;29;20294;-70
2022/06/23 05:43:19;;;;;;;9.77;3.60;;;19.60;99.90;;;;;;4916775;29;20203;-71
2022/06/23 05:45:54;;;;;;;10.10;3.47;;;19.60;99.90;;;;;;4900933;29;20724;-71
2022/06/23 05:48:30;;;;;;;8.53;3.60;;;19.50;99.90;;;;;;4916987;29;20253;-71
2022/06/23 05:51:07;;;;;;;9.50;3.33;;;19.60;99.90;;;;;;4916811;29;20203;-70
2022/06/23 05:53:41;;;;;;;7.17;3.67;;;19.60;99.90;;;;;;4900971;29;20207;-70
2022/06/23 05:56:24;;;;;;;5.63;3.10;;;19.50;99.90;;;;;;4900520;29;20207;-70
2022/06/23 05:59:13;;;;;;;8.43;3.70;;;19.50;99.90;;;;;;4901195;29;20213;-69
2022/06/23 06:01:53;;;;;;;7.23;3.43;;;19.50;99.90;;;;;;4900750;29;20208;-70
2022/06/23 06:04:32;;;;;;;9.23;3.63;;;19.40;99.90;;;;;;4915958;29;20570;-69
2022/06/23 06:06:59;;;;;;;12.17;3.70;;;19.40;99.90;;;;;;4916410;29;20227;-71
2022/06/23 06:09:36;;;;;;;10.93;3.53;;;19.50;99.90;;;;;;4939596;28;20304;-70
2022/06/23 06:12:05;;;;;;;7.97;3.93;;;19.60;99.90;;;;;;4977955;28;20271;-71
2022/06/23 06:14:38;;;;;;;11.50;4.23;;;19.70;99.90;;;;;;4978004;28;20305;-70
2022/06/23 06:17:25;;;;;;;9.00;4.27;;;19.80;99.90;;;;;;4994244;28;20196;-68
2022/06/23 06:19:56;;;;;;;7.67;3.70;;;19.90;99.90;;;;;;4978370;28;20247;-69
2022/06/23 06:22:55;;;;;;;10.13;4.00;;;20.00;99.90;;;;;;4977943;28;20197;-69
2022/06/23 06:25:31;;;;;;;10.53;4.10;;;20.10;99.90;;;;;;4993985;28;20309;-70
2022/06/23 06:28:12;;;;;;;6.63;3.13;;;20.10;99.90;;;;;;4978050;28;20224;-70
2022/06/23 06:30:44;;;;;;;8.30;3.73;;;20.20;99.90;;;;;;4978018;28;20193;-70
2022/06/23 06:33:29;;;;;;;9.63;3.53;;;20.30;99.90;;;;;;4977880;28;20228;-71
2022/06/23 06:35:56;;;;;;;6.47;3.37;;;20.30;99.90;;;;;;4995055;28;20268;-70
2022/06/23 06:38:26;;;;;;;7.50;4.00;;;20.30;99.90;;;;;;4977531;28;20211;-69
2022/06/23 06:40:56;;;;;;;7.13;3.60;;;20.40;99.90;;;;;;4977821;28;20201;-69
2022/06/23 06:43:31;;;;;;;6.33;3.43;;;20.50;99.90;;;;;;4977293;28;20233;-69
2022/06/23 06:45:58;;;;;;;5.07;3.20;;;20.50;99.90;;;;;;4977058;28;20290;-69
2022/06/23 06:48:38;;;;;;;6.23;3.20;;;20.50;99.90;;;;;;4994338;28;20580;-68
2022/06/23 06:51:17;;;;;;;4.90;3.00;;;20.60;99.90;;;;;;4994219;28;20260;-66
2022/06/23 06:56:31;;;;;;;5.73;2.67;;;20.70;99.90;;;;;;5146670;23;20240;-78
2022/06/23 06:59:32;;;;;;;7.47;2.70;;;20.80;99.90;;;;;;5023790;23;20593;-69
2022/06/23 07:02:34;;;;;;;10.07;2.80;;;21.00;99.90;;;;;;5007967;23;20207;-67
2022/06/23 07:05:10;;;;;;;6.43;2.70;;;20.90;99.90;;;;;;4956671;28;20201;-69
2022/06/23 07:07:42;;;;;;;6.57;2.73;;;21.00;99.90;;;;;;4972619;28;20308;-67
2022/06/23 07:10:24;;;;;;;7.53;2.83;;;21.20;99.90;;;;;;4956845;28;20706;-67
2022/06/23 07:12:59;;;;;;;6.70;2.60;;;21.20;99.90;;;;;;4960525;28;20206;-67
2022/06/23 07:15:41;;;;;;;6.30;2.90;;;21.20;99.90;;;;;;4937037;29;20288;-67
2022/06/23 07:18:54;;;;;;;5.87;2.67;;;21.20;99.90;;;;;;4937761;29;20228;-69
2022/06/23 07:21:27;;;;;;;4.53;2.53;;;21.30;99.90;;;;;;4915315;29;20218;-67
2022/06/23 07:24:12;;;;;;;3.50;2.10;;;21.40;99.90;;;;;;4915375;29;20298;-68
2022/06/23 07:26:51;;;;;;;4.20;2.37;;;21.50;99.90;;;;;;4915040;29;20227;-68
2022/06/23 07:29:32;;;;;;;5.40;2.30;;;21.60;99.90;;;;;;4899523;29;20314;-68
2022/06/23 07:32:02;;;;;;;5.07;2.40;;;21.70;99.90;;;;;;4899464;29;20303;-69
2022/06/23 07:34:34;;;;;;;5.30;2.70;;;21.60;99.90;;;;;;4899323;29;20721;-68
2022/06/23 07:37:25;;;;;;;4.77;2.90;;;21.60;99.90;;;;;;4899396;29;20200;-70
2022/06/23 07:40:03;;;;;;;4.20;2.70;;;21.60;99.90;;;;;;4915289;29;20199;-69
2022/06/23 07:42:45;;;;;;;4.10;2.27;;;21.60;99.90;;;;;;4913571;29;20289;-71
2022/06/23 07:45:20;;;;;;;5.57;2.40;;;21.70;99.90;;;;;;4933739;29;20293;-73
2022/06/23 07:47:47;;;;;;;4.87;2.40;;;21.90;99.90;;;;;;4934845;29;20218;-74
2022/06/23 07:50:14;;;;;;;6.00;2.70;;;22.10;99.90;;;;;;4917923;29;20242;-72
2022/06/23 07:52:44;;;;;;;4.47;2.60;;;22.10;99.90;;;;;;4923772;29;20203;-76
2022/06/23 07:55:28;;;;;;;5.03;2.70;;;22.30;99.90;;;;;;4917996;29;20703;-76
2022/06/23 07:58:14;;;;;;;6.23;2.80;;;22.40;99.90;;;;;;4956720;28;20209;-78
2022/06/23 08:00:45;;;;;;;4.03;2.33;;;22.50;99.90;;;;;;4992664;28;20263;-75
2022/06/23 08:03:16;;;;;;;7.07;2.93;;;22.50;99.90;;;;;;4992241;28;20919;-77
2022/06/23 08:05:51;;;;;;;5.17;2.90;;;22.50;99.90;;;;;;4993710;28;20200;-76
2022/06/23 08:08:23;;;;;;;3.33;2.40;;;22.50;99.90;;;;;;5008991;28;20255;-77
2022/06/23 08:12:53;;;;;;;5.63;2.97;;;22.50;99.90;;;;;;5008700;28;20197;-74
2022/06/23 08:13:47;;;;;;;3.67;2.33;;;22.60;99.90;;;;;;5008349;28;20651;-74
2022/06/23 08:19:17;;;;;;;3.67;2.30;;;22.90;99.90;;;;;;4976071;28;20239;-72
2022/06/23 08:21:52;;;;;;;8.10;2.80;;;23.00;99.90;;;;;;4976122;28;20197;-73
2022/06/23 08:24:24;;;;;;;6.07;2.73;;;22.90;99.90;;;;;;4975653;28;20193;-73
2022/06/23 08:27:06;;;;;;;6.97;3.03;;;23.20;99.90;;;;;;4996377;28;20283;-73
2022/06/23 08:29:40;;;;;;;5.25;2.67;;;23.80;99.90;;;;;;4980514;28;20311;-76
2022/06/23 08:32:08;;;;;;;4.57;2.83;;;24.00;99.90;;;;;;4999536;28;20275;-79
2022/06/23 08:34:39;;;;;;;5.03;2.53;;;24.60;99.90;;;;;;4997770;28;20189;-74
2022/06/23 08:37:20;;;;;;;6.63;2.70;;;25.60;99.90;;;;;;5012900;28;20279;-76
2022/06/23 08:40:45;;;;;;;4.28;2.60;;;26.60;99.90;;;;;;4981204;28;20489;-77
2022/06/23 08:43:34;;;;;;;3.80;2.38;;;27.30;99.90;;;;;;4918673;29;20250;-73
2022/06/23 08:46:29;;;;;;;4.03;2.40;;;27.80;97.30;;;;;;4908331;29;20195;-72
2022/06/23 08:49:10;;;;;;;11.00;2.83;;;27.90;94.90;;;;;;4925965;29;20235;-76
2022/06/23 08:51:43;;;;;;;2.45;1.70;;;27.70;91.90;;;;;;4916366;29;20880;-76
2022/06/23 08:54:25;;;;;;;2.88;1.80;;;28.20;86.00;;;;;;4918395;29;20290;-76
2022/06/23 08:57:14;;;;;;;4.93;2.17;;;27.70;84.40;;;;;;4922067;29;20196;-76
2022/06/23 09:00:09;;;;;;;4.43;2.47;;;27.50;88.60;;;;;;4916976;29;20207;-77
2022/06/23 09:02:40;;;;;;;4.93;2.40;;;27.10;89.60;;;;;;4901980;29;20236;-83
2022/06/23 09:05:49;;;;;;;4.53;1.95;;;27.10;88.30;;;;;;4933992;29;20223;-76
2022/06/23 09:08:48;;;;;;;5.97;2.15;;;27.30;86.70;;;;;;4912208;29;20231;-76
2022/06/23 09:11:51;;;;;;;6.82;2.40;;;28.00;83.10;;;;;;4921321;29;20195;-78
2022/06/23 09:14:50;;;;;;;3.75;2.00;;;28.20;80.00;;;;;;4983094;28;20208;-78
2022/06/23 09:17:45;;;;;;;4.93;1.90;;;28.40;77.80;;;;;;4982279;28;20197;-78
2022/06/23 09:20:53;;;;;;;3.92;2.08;;;28.30;76.30;;;;;;4988944;28;20197;-77
2022/06/23 09:23:57;;;;;;;7.90;2.25;;;28.40;76.00;;;;;;4940961;29;20210;-74
2022/06/23 09:26:45;;;;;;;4.78;2.10;;;28.80;75.20;;;;;;4926726;29;20199;-78
2022/06/23 09:29:45;;;;;;;4.35;1.85;;;29.00;73.70;;;;;;4924478;29;20229;-78
2022/06/23 09:32:24;;;;;;;4.80;2.35;;;29.60;75.00;;;;;;4922197;29;20305;-76
2022/06/23 09:35:12;;;;;;;5.38;2.28;;;29.60;74.90;;;;;;4939343;29;20307;-77
2022/06/23 09:38:04;;;;;;;3.60;2.53;;;29.40;74.40;;;;;;4925825;29;20233;-79
2022/06/23 09:41:15;;;;;;;3.30;2.35;;;28.80;74.60;;;;;;4921470;29;20207;-80
2022/06/23 09:43:51;;;;;;;5.07;2.60;;;28.20;75.40;;;;;;4920277;29;20203;-80
2022/06/23 09:46:55;;;;;;;4.65;2.55;;;27.70;75.20;;;;;;4920822;29;20202;-79
2022/06/23 09:49:50;;;;;;;4.93;2.80;;;27.30;79.60;;;;;;4919945;29;20222;-75
2022/06/23 09:52:50;;;;;;;8.02;3.05;;;27.70;82.00;;;;;;4936223;29;20297;-77
2022/06/23 09:55:37;;;;;;;3.97;2.70;;;27.80;80.70;;;;;;4934110;29;20285;-76
2022/06/23 09:58:22;;;;;;;4.25;2.70;;;27.80;80.30;;;;;;4930559;28;20253;-76
2022/06/23 10:00:49;;;;;;;4.45;2.38;;;27.60;78.90;;;;;;4981979;28;20595;-76
2022/06/23 10:03:25;;;;;;;5.15;2.40;;;27.30;80.70;;;;;;5002983;28;20768;-73
2022/06/23 10:06:15;;;;;;;4.47;2.60;;;27.10;79.90;;;;;;5000211;28;20203;-75
2022/06/23 10:08:49;;;;;;;3.38;2.42;;;26.90;78.80;;;;;;5000858;28;20220;-77
2022/06/23 10:11:50;;;;;;;5.05;2.67;;;27.10;80.20;;;;;;5030432;28;20295;-78
2022/06/23 10:14:51;;;;;;;4.78;2.38;;;27.00;79.20;;;;;;4997541;28;20581;-78
2022/06/23 10:17:42;;;;;;;3.95;2.50;;;27.00;79.50;;;;;;4981389;28;20299;-77
2022/06/23 10:20:26;;;;;;;4.28;2.47;;;27.60;77.90;;;;;;5012895;28;20195;-75
2022/06/23 10:23:25;;;;;;;3.05;2.30;;;28.30;76.30;;;;;;4991677;28;20238;-77
2022/06/23 10:25:56;;;;;;;4.85;2.60;;;28.70;75.20;;;;;;4916298;29;20314;-73
2022/06/23 10:29:08;;;;;;;4.38;2.58;;;28.60;74.40;;;;;;4900431;29;20234;-74
2022/06/23 10:32:02;;;;;;;3.92;2.30;;;29.00;76.00;;;;;;4905003;29;20365;-74
2022/06/23 10:35:02;;;;;;;3.30;2.38;;;29.80;73.20;;;;;;4919276;29;20203;-75
2022/06/23 10:37:50;;;;;;;3.58;2.05;;;30.40;70.80;;;;;;4935551;29;20242;-81
2022/06/23 10:40:20;;;;;;;6.38;2.50;;;30.80;67.50;;;;;;4935351;29;20256;-77
2022/06/23 10:43:23;;;;;;;3.38;2.20;;;31.30;67.40;;;;;;4922009;29;20245;-78
2022/06/23 10:45:56;;;;;;;3.95;2.35;;;31.40;64.90;;;;;;4919514;29;20666;-77
2022/06/23 10:48:47;;;;;;;3.97;2.22;;;30.80;65.20;;;;;;4934399;29;20814;-77
2022/06/23 10:51:25;;;;;;;3.03;2.17;;;30.20;64.60;;;;;;4919246;29;20213;-77
2022/06/23 10:54:04;;;;;;;3.38;2.15;;;29.70;66.60;;;;;;4918856;29;20211;-81
2022/06/23 10:56:58;;;;;;;4.38;2.30;;;29.90;68.20;;;;;;4918605;29;20294;-76
2022/06/23 10:59:37;;;;;;;3.22;2.00;;;30.30;66.00;;;;;;4918510;29;20223;-75
2022/06/23 11:02:04;;;;;;;7.95;2.38;;;31.20;67.60;;;;;;4956151;28;20712;-75
2022/06/23 11:04:59;;;;;;;4.18;2.13;;;31.60;65.20;;;;;;4977160;28;20211;-76
2022/06/23 11:07:39;;;;;;;2.60;2.10;;;31.30;63.20;;;;;;4977382;28;20197;-74
2022/06/23 11:10:35;;;;;;;3.38;2.30;;;30.90;63.30;;;;;;4977610;28;20307;-75
2022/06/23 11:13:43;;;;;;;2.75;2.10;;;30.40;65.90;;;;;;4880992;29;20710;-75
2022/06/23 11:16:33;;;;;;;3.50;2.17;;;29.70;66.10;;;;;;4843962;29;20205;-77
2022/06/23 11:19:27;;;;;;;3.58;2.30;;;29.50;67.60;;;;;;4859764;29;20298;-74
2022/06/23 11:22:20;;;;;;;5.95;2.53;;;29.60;68.30;;;;;;4859511;29;20224;-77
2022/06/23 11:24:57;;;;;;;5.25;2.25;;;30.20;67.50;;;;;;4859107;29;20202;-73
2022/06/23 11:27:55;;;;;;;2.83;2.17;;;31.00;66.20;;;;;;4859389;29;20263;-79
2022/06/23 11:30:48;;;;;;;5.90;2.55;;;31.40;63.70;;;;;;4859413;29;20229;-77
2022/06/23 11:33:21;;;;;;;6.32;2.17;;;32.10;60.50;;;;;;4859130;29;20219;-76
2022/06/23 11:36:30;;;;;;;4.43;2.30;;;32.30;62.50;;;;;;4853841;29;20222;-75
2022/06/23 11:39:08;;;;;;;2.55;2.05;;;32.30;61.00;;;;;;4840512;29;20202;-79
2022/06/23 11:42:05;;;;;;;2.20;2.00;;;31.70;59.20;;;;;;4840548;29;20644;-76
2022/06/23 11:44:51;;;;;;;3.90;2.20;;;30.90;60.70;;;;;;4840360;29;20292;-75
2022/06/23 11:47:47;;;;;;;3.17;2.20;;;30.50;64.40;;;;;;4840686;29;20296;-73
2022/06/23 11:50:24;;;;;;;3.38;2.50;;;30.10;65.70;;;;;;4832107;29;20749;-74
2022/06/23 11:53:02;;;;;;;4.97;2.40;;;30.40;65.00;;;;;;4884882;29;20205;-75
2022/06/23 11:55:43;;;;;;;3.72;2.10;;;30.90;63.60;;;;;;4915531;29;20211;-74
2022/06/23 11:58:28;;;;;;;3.22;2.20;;;31.20;62.40;;;;;;4914624;29;20524;-77
2022/06/23 12:01:20;;;;;;;4.65;1.90;;;31.80;60.20;;;;;;4914340;29;20235;-76
2022/06/23 12:04:17;;;;;;;3.72;1.98;;;32.30;58.70;;;;;;4927346;29;20241;-79
2022/06/23 12:07:19;;;;;;;2.72;2.08;;;32.70;59.00;;;;;;4934071;29;20265;-81
2022/06/23 12:10:02;;;;;;;5.97;2.30;;;33.30;57.90;;;;;;4934014;29;20296;-75
2022/06/23 12:12:33;;;;;;;3.42;2.10;;;33.50;55.30;;;;;;4933785;29;20302;-79
2022/06/23 12:15:04;;;;;;;2.88;2.00;;;33.70;54.40;;;;;;4933338;29;20639;-81
2022/06/23 12:17:39;;;;;;;7.13;2.05;;;33.90;53.80;;;;;;4934282;29;20604;-82
2022/06/23 12:20:13;;;;;;;2.80;1.80;;;34.50;54.40;;;;;;4934605;29;20198;-81
2022/06/23 12:22:51;;;;;;;4.40;1.85;;;34.80;53.60;;;;;;4917191;29;20195;-82
2022/06/23 12:25:50;;;;;;;2.28;1.80;;;34.70;51.70;;;;;;4898841;29;20207;-80
2022/06/23 12:28:56;;;;;;;4.20;1.90;;;35.00;53.00;;;;;;5004950;28;20299;-79
2022/06/23 12:31:44;;;;;;;2.83;2.13;;;35.40;51.50;;;;;;4913867;29;20303;-76
2022/06/23 12:34:20;;;;;;;4.53;3.70;;;35.70;50.90;;;;;;4858707;29;20290;-79
2022/06/23 12:36:58;;;;;;;3.67;2.92;;;36.00;49.90;;;;;;4843436;29;20209;-82
2022/06/23 12:39:55;;;;;;;2.35;2.05;;;36.00;48.80;;;;;;4860007;29;20308;-83
2022/06/23 12:42:33;;;;;;;3.28;2.00;;;36.10;48.30;;;;;;4843362;29;20232;-81
2022/06/23 12:45:13;;;;;;;3.83;1.70;;;35.90;48.60;;;;;;4846040;29;20201;-82
2022/06/23 12:47:54;;;;;;;2.35;1.90;;;36.10;50.50;;;;;;4859183;29;20284;-84
2022/06/23 12:50:30;;;;;;;2.28;1.77;;;35.80;48.40;;;;;;4858894;29;20233;-83
2022/06/23 12:53:17;;;;;;;4.53;1.95;;;35.40;48.40;;;;;;4875636;29;20204;-84
2022/06/23 12:56:12;;;;;;;3.63;1.80;;;34.90;48.70;;;;;;4862120;29;20629;-84
2022/06/23 12:58:58;;;;;;;3.35;1.90;;;34.20;49.60;;;;;;4877013;29;20769;-81
2022/06/23 13:01:45;;;;;;;3.17;1.90;;;33.80;50.50;;;;;;4876823;29;20209;-78
2022/06/23 13:04:25;;;;;;;3.25;1.77;;;34.00;51.00;;;;;;4860824;29;20264;-79
2022/06/23 13:07:08;;;;;;;3.25;1.80;;;33.60;50.60;;;;;;4860792;29;20199;-78
2022/06/23 13:09:45;;;;;;;2.72;1.70;;;33.70;50.50;;;;;;4912583;29;20223;-80
2022/06/23 13:12:59;;;;;;;3.25;1.90;;;33.50;50.90;;;;;;4976717;28;20296;-81
2022/06/23 13:15:48;;;;;;;3.72;1.90;;;32.90;51.20;;;;;;4996871;28;20199;-79
2022/06/23 13:18:36;;;;;;;2.83;2.10;;;32.40;52.30;;;;;;4979819;28;20239;-80
2022/06/23 13:21:26;;;;;;;3.35;2.08;;;31.70;53.80;;;;;;4998945;28;20177;-79
2022/06/23 13:24:04;;;;;;;2.55;2.30;;;31.40;55.10;;;;;;4992973;28;20236;-86
2022/06/23 13:26:36;;;;;;;4.80;2.13;;;31.30;55.00;;;;;;4980327;28;20620;-85
2022/06/23 13:29:18;;;;;;;3.10;2.10;;;31.90;55.40;;;;;;4980280;28;20239;-83
2022/06/23 13:32:22;;;;;;;2.88;2.20;;;32.50;53.00;;;;;;4980409;28;20590;-81
2022/06/23 13:35:06;;;;;;;8.63;7.25;;;32.80;52.20;;;;;;4998035;28;20208;-82
2022/06/23 13:37:44;;;;;;;3.22;2.92;;;33.10;51.50;;;;;;4999801;28;20263;-80
2022/06/23 13:40:41;;;;;;;4.55;2.20;;;33.40;51.90;;;;;;4998803;28;20204;-80
2022/06/23 13:43:35;;;;;;;4.68;2.15;;;33.60;51.30;;;;;;4995126;28;20287;-80
2022/06/23 13:46:13;;;;;;;2.78;1.67;;;34.00;51.20;;;;;;5013896;28;20653;-81
2022/06/23 13:48:59;;;;;;;2.90;1.70;;;34.20;48.70;;;;;;5015731;28;20266;-81
2022/06/23 13:51:45;;;;;;;3.08;1.70;;;34.50;49.80;;;;;;5018632;28;20253;-81
2022/06/23 13:54:27;;;;;;;2.40;1.60;;;34.60;48.50;;;;;;4998592;28;20184;-81
2022/06/23 13:57:10;;;;;;;3.22;1.80;;;34.90;48.20;;;;;;5016123;28;20221;-80
2022/06/23 14:00:00;;;;;;;2.55;1.80;;;34.90;47.10;;;;;;5016318;28;20200;-80
2022/06/23 14:02:53;;;;;;;3.47;1.73;;;34.80;48.20;;;;;;5017490;28;20224;-79
2022/06/23 14:05:26;;;;;;;3.45;1.85;;;35.30;48.30;;;;;;4996068;28;20205;-79
2022/06/23 14:08:08;;;;;;;2.13;1.60;;;35.40;47.50;;;;;;5014348;28;20251;-82
2022/06/23 14:10:42;;;;;;;3.65;1.65;;;35.90;47.00;;;;;;5017949;28;20220;-79
2022/06/23 14:13:48;;;;;;;3.90;1.67;;;35.90;46.10;;;;;;5015608;28;20188;-79